Time;durP1;ratioP1;P1;durP2;ratioP2;P2;SDS_P1;SDS_P2;PMS_P1;PMS_P2;Temp;Humidity;BMP_temperature;BMP_pressure;BME280_temperature;BME280_humidity;BME280_pressure;Samples;Min_cycle;Max_cycle;Signal;HPM_P1;HPM_P2
2023/08/06 00:00:23;;;;;;;11.48;8.68;;;15.00;99.90;;;;;;5048720;28;20072;-81
2023/08/06 00:02:49;;;;;;;10.50;9.48;;;14.10;99.90;;;;;;5052498;28;20129;-81
2023/08/06 00:05:20;;;;;;;9.88;9.05;;;14.20;99.90;;;;;;5009752;28;20501;-81
2023/08/06 00:07:46;;;;;;;9.85;8.57;;;14.10;99.90;;;;;;5051529;28;20048;-81
2023/08/06 00:10:12;;;;;;;8.48;7.78;;;14.20;99.90;;;;;;5044292;28;20123;-81
2023/08/06 00:12:38;;;;;;;8.82;7.90;;;14.20;99.90;;;;;;5034712;28;20546;-81
2023/08/06 00:15:03;;;;;;;9.82;8.82;;;14.20;99.90;;;;;;5032997;28;20449;-81
2023/08/06 00:17:29;;;;;;;10.32;9.25;;;14.10;99.90;;;;;;5052025;28;20114;-82
2023/08/06 00:19:55;;;;;;;12.20;9.10;;;14.80;99.90;;;;;;5050052;28;20067;-81
2023/08/06 00:22:20;;;;;;;12.15;10.40;;;14.20;99.90;;;;;;5039497;28;20044;-81
2023/08/06 00:24:46;;;;;;;15.40;12.85;;;14.00;99.90;;;;;;5064257;28;20028;-81
2023/08/06 00:27:11;;;;;;;11.68;10.02;;;14.00;99.90;;;;;;5047123;28;20040;-81
2023/08/06 00:29:37;;;;;;;12.85;11.55;;;14.00;99.90;;;;;;5033824;28;20038;-82
2023/08/06 00:32:03;;;;;;;15.25;12.60;;;14.60;99.90;;;;;;5034418;28;20111;-82
2023/08/06 00:34:29;;;;;;;14.30;12.45;;;14.00;99.90;;;;;;5051082;28;20078;-81
2023/08/06 00:36:55;;;;;;;12.40;11.02;;;14.00;99.90;;;;;;5050463;28;20090;-82
2023/08/06 00:39:21;;;;;;;17.90;13.27;;;14.00;99.90;;;;;;5040925;28;20048;-81
2023/08/06 00:41:46;;;;;;;17.33;12.77;;;14.00;99.90;;;;;;5039859;28;20045;-82
2023/08/06 00:44:12;;;;;;;14.90;13.25;;;14.00;99.90;;;;;;5047888;28;20098;-81
2023/08/06 00:46:38;;;;;;;17.85;12.95;;;14.00;99.90;;;;;;5055837;28;20114;-81
2023/08/06 00:49:04;;;;;;;17.33;12.68;;;13.90;99.90;;;;;;5050699;28;20040;-81
2023/08/06 00:51:31;;;;;;;13.63;11.48;;;14.00;99.90;;;;;;5034742;28;20149;-81
2023/08/06 00:53:57;;;;;;;18.92;14.20;;;14.00;99.90;;;;;;5033503;28;20398;-81
2023/08/06 00:56:23;;;;;;;19.10;13.70;;;14.00;99.90;;;;;;5044284;28;20042;-81
2023/08/06 00:58:48;;;;;;;16.90;12.88;;;15.20;99.90;;;;;;5051391;28;20047;-81
2023/08/06 01:01:14;;;;;;;13.30;11.57;;;13.50;99.90;;;;;;5046620;28;20044;-81
2023/08/06 01:03:40;;;;;;;16.58;12.80;;;13.90;99.90;;;;;;5031970;28;20125;-81
2023/08/06 01:06:06;;;;;;;15.70;12.15;;;13.90;99.90;;;;;;5033842;28;20512;-81
2023/08/06 01:09:01;;;;;;;20.23;13.30;;;13.80;99.90;;;;;;5049567;28;20493;-81
2023/08/06 01:11:29;;;;;;;18.70;11.52;;;13.90;99.90;;;;;;5038837;28;20048;-82
2023/08/06 01:14:02;;;;;;;15.43;12.60;;;13.80;99.90;;;;;;5033505;28;20042;-81
2023/08/06 01:16:29;;;;;;;14.15;11.52;;;14.40;99.90;;;;;;5046731;28;20046;-81
2023/08/06 01:18:55;;;;;;;15.65;11.80;;;13.80;99.90;;;;;;5049864;28;20119;-82
2023/08/06 01:21:20;;;;;;;15.07;12.18;;;13.80;99.90;;;;;;5043317;28;20471;-82
2023/08/06 01:23:47;;;;;;;12.05;10.85;;;13.70;99.90;;;;;;5033506;28;20088;-81
2023/08/06 01:26:28;;;;;;;14.07;10.00;;;13.80;99.90;;;;;;5034917;28;20101;-81
2023/08/06 01:29:15;;;;;;;12.43;9.95;;;13.90;99.90;;;;;;5050606;28;20578;-81
2023/08/06 01:31:44;;;;;;;11.27;10.02;;;13.90;99.90;;;;;;5025178;28;20549;-80
2023/08/06 01:34:17;;;;;;;9.90;8.85;;;14.90;99.90;;;;;;5033288;28;20050;-78
2023/08/06 01:36:44;;;;;;;10.85;9.65;;;13.90;99.90;;;;;;5026060;28;20504;-79
2023/08/06 01:39:10;;;;;;;12.82;9.23;;;13.90;99.90;;;;;;5032301;28;20042;-79
2023/08/06 01:41:35;;;;;;;13.18;9.02;;;13.90;99.90;;;;;;5050502;28;20115;-79
2023/08/06 01:44:01;;;;;;;12.18;9.73;;;13.90;99.90;;;;;;5050538;28;20074;-82
2023/08/06 01:46:27;;;;;;;14.65;9.77;;;13.90;99.90;;;;;;5039494;28;20051;-79
2023/08/06 01:48:52;;;;;;;11.25;9.90;;;13.80;99.90;;;;;;5033255;28;20046;-81
2023/08/06 01:51:18;;;;;;;10.23;9.15;;;13.90;99.90;;;;;;5036917;28;20125;-82
2023/08/06 01:53:44;;;;;;;11.18;10.02;;;13.80;99.90;;;;;;5049882;28;20404;-82
2023/08/06 01:56:09;;;;;;;13.30;9.65;;;13.80;99.90;;;;;;5050447;28;20071;-81
2023/08/06 01:58:35;;;;;;;12.95;10.15;;;13.90;99.90;;;;;;5034571;28;20038;-81
2023/08/06 02:01:02;;;;;;;10.52;9.57;;;14.30;99.90;;;;;;5031947;28;20042;-81
2023/08/06 02:03:27;;;;;;;11.50;10.30;;;14.40;99.90;;;;;;5041528;28;20046;-79
2023/08/06 02:05:53;;;;;;;14.85;12.80;;;13.90;99.90;;;;;;5048785;28;20042;-81
2023/08/06 02:08:19;;;;;;;13.95;11.55;;;13.90;99.90;;;;;;5046555;28;20058;-81
2023/08/06 02:10:45;;;;;;;11.70;10.10;;;13.80;99.90;;;;;;5032920;28;20042;-82
2023/08/06 02:13:11;;;;;;;14.13;12.57;;;13.90;99.90;;;;;;5031445;28;20046;-81
2023/08/06 02:15:42;;;;;;;13.68;10.75;;;13.90;99.90;;;;;;5045459;28;20116;-81
2023/08/06 02:18:08;;;;;;;15.18;11.07;;;13.90;99.90;;;;;;5049685;28;20047;-82
2023/08/06 02:20:34;;;;;;;16.13;13.15;;;13.80;99.90;;;;;;5036888;28;20135;-81
2023/08/06 02:22:59;;;;;;;14.18;10.65;;;13.90;99.90;;;;;;5032560;28;20134;-81
2023/08/06 02:25:25;;;;;;;14.55;12.18;;;13.90;99.90;;;;;;5038566;28;20043;-81
2023/08/06 02:27:50;;;;;;;14.50;11.93;;;13.90;99.90;;;;;;5050754;28;20085;-82
2023/08/06 02:30:16;;;;;;;18.17;15.40;;;13.90;99.90;;;;;;5060146;28;20048;-81
2023/08/06 02:32:41;;;;;;;14.18;12.43;;;13.90;99.90;;;;;;5041144;28;20076;-81
2023/08/06 02:35:07;;;;;;;13.32;11.90;;;13.90;99.90;;;;;;5032537;28;20456;-82
2023/08/06 02:37:34;;;;;;;16.02;12.05;;;13.90;99.90;;;;;;5043530;28;20049;-81
2023/08/06 02:39:59;;;;;;;17.90;13.63;;;13.90;99.90;;;;;;5049498;28;20036;-81
2023/08/06 02:42:26;;;;;;;14.32;12.85;;;14.70;99.90;;;;;;5043846;28;20069;-81
2023/08/06 02:44:54;;;;;;;12.82;11.45;;;15.30;99.90;;;;;;5030781;28;20109;-81
2023/08/06 02:47:20;;;;;;;14.85;13.10;;;14.00;99.90;;;;;;5033213;28;20069;-81
2023/08/06 02:49:46;;;;;;;15.38;12.27;;;14.00;99.90;;;;;;5048714;28;20480;-81
2023/08/06 02:52:12;;;;;;;13.40;12.10;;;14.00;99.90;;;;;;5049574;28;20487;-81
2023/08/06 02:54:37;;;;;;;14.98;11.90;;;14.00;99.90;;;;;;5036492;28;20043;-81
2023/08/06 02:57:04;;;;;;;12.88;11.60;;;13.90;99.90;;;;;;5031398;28;20078;-79
2023/08/06 02:59:30;;;;;;;12.00;10.80;;;14.00;99.90;;;;;;5038675;28;20038;-82
2023/08/06 03:01:56;;;;;;;15.15;12.18;;;14.00;99.90;;;;;;5049311;28;20522;-82
2023/08/06 03:04:21;;;;;;;14.85;12.30;;;14.00;99.90;;;;;;5046246;28;20071;-82
2023/08/06 03:06:50;;;;;;;13.55;11.70;;;14.00;99.90;;;;;;5030796;28;20091;-81
2023/08/06 03:09:15;;;;;;;12.40;10.90;;;14.40;99.90;;;;;;5031618;28;20042;-82
2023/08/06 03:11:41;;;;;;;12.57;11.35;;;14.00;99.90;;;;;;5045707;28;20047;-81
2023/08/06 03:14:06;;;;;;;14.43;11.18;;;14.00;99.90;;;;;;5049121;28;20353;-81
2023/08/06 03:16:32;;;;;;;12.73;10.75;;;14.00;99.90;;;;;;5041382;28;20131;-81
2023/08/06 03:18:58;;;;;;;12.35;10.27;;;14.00;99.90;;;;;;5030596;28;20386;-81
2023/08/06 03:21:23;;;;;;;11.73;10.70;;;14.00;99.90;;;;;;5032521;28;20092;-81
2023/08/06 03:23:49;;;;;;;11.73;10.27;;;14.00;99.90;;;;;;5048232;28;20040;-81
2023/08/06 03:26:14;;;;;;;13.32;11.77;;;14.10;99.90;;;;;;5049165;28;20044;-82
2023/08/06 03:28:40;;;;;;;12.15;10.80;;;15.10;99.90;;;;;;5036597;28;20051;-81
2023/08/06 03:31:06;;;;;;;12.10;10.90;;;14.10;99.90;;;;;;5030793;28;20046;-82
2023/08/06 03:33:31;;;;;;;15.05;11.20;;;14.10;99.90;;;;;;5036980;28;20063;-81
2023/08/06 03:35:57;;;;;;;13.95;9.82;;;14.10;99.90;;;;;;5048904;28;20453;-79
2023/08/06 03:38:23;;;;;;;10.43;9.45;;;14.10;99.90;;;;;;5048167;28;20044;-82
2023/08/06 03:40:49;;;;;;;12.63;11.25;;;14.10;99.90;;;;;;5031456;28;20047;-81
2023/08/06 03:43:15;;;;;;;12.00;10.73;;;14.10;99.90;;;;;;5031101;28;20478;-81
2023/08/06 03:45:41;;;;;;;12.15;10.82;;;14.10;99.90;;;;;;5042102;28;20053;-81
2023/08/06 03:48:07;;;;;;;12.25;10.98;;;14.10;99.90;;;;;;5048623;28;20044;-81
2023/08/06 03:50:32;;;;;;;16.10;11.77;;;15.20;99.90;;;;;;5043451;28;20051;-81
2023/08/06 03:52:58;;;;;;;12.32;11.05;;;14.90;99.90;;;;;;5031068;28;20031;-81
2023/08/06 03:55:24;;;;;;;16.70;10.75;;;14.10;99.90;;;;;;5031294;28;20142;-81
2023/08/06 03:57:49;;;;;;;12.05;9.35;;;14.10;99.90;;;;;;5047892;28;20036;-80
2023/08/06 04:00:15;;;;;;;11.10;10.07;;;14.10;99.90;;;;;;5048022;28;20036;-81
2023/08/06 04:02:41;;;;;;;12.90;11.18;;;14.10;99.90;;;;;;5038440;28;20063;-81
2023/08/06 04:05:07;;;;;;;11.20;10.20;;;14.80;99.90;;;;;;5030965;28;20050;-81
2023/08/06 04:07:32;;;;;;;10.25;9.25;;;14.10;99.90;;;;;;5034372;28;20077;-81
2023/08/06 04:10:00;;;;;;;11.20;10.05;;;14.10;99.90;;;;;;5048186;28;20211;-81
2023/08/06 04:12:26;;;;;;;10.63;8.48;;;14.10;99.90;;;;;;5048993;28;20051;-82
2023/08/06 04:14:52;;;;;;;10.13;9.32;;;14.20;99.90;;;;;;5032026;28;20046;-81
2023/08/06 04:17:21;;;;;;;11.95;10.75;;;14.20;99.90;;;;;;5039270;28;20443;-81
2023/08/06 04:19:48;;;;;;;11.38;9.45;;;14.20;99.90;;;;;;5052459;28;20101;-81
2023/08/06 04:22:14;;;;;;;9.88;7.93;;;14.20;99.90;;;;;;5048585;28;20408;-81
2023/08/06 04:24:40;;;;;;;10.50;9.27;;;14.20;99.90;;;;;;5039219;28;20032;-81
2023/08/06 04:27:05;;;;;;;11.50;10.15;;;14.20;99.90;;;;;;5029900;28;20393;-81
2023/08/06 04:29:31;;;;;;;9.98;9.18;;;14.20;99.90;;;;;;5035303;28;20050;-81
2023/08/06 04:31:57;;;;;;;11.90;10.77;;;14.20;99.90;;;;;;5051816;28;20552;-81
2023/08/06 04:34:22;;;;;;;12.73;9.65;;;14.20;99.90;;;;;;5051532;28;20387;-82
2023/08/06 04:36:48;;;;;;;12.23;10.00;;;14.20;99.90;;;;;;5039094;28;20439;-81
2023/08/06 04:39:14;;;;;;;12.77;9.88;;;14.20;99.90;;;;;;5034062;28;20061;-81
2023/08/06 04:41:40;;;;;;;12.02;9.68;;;14.20;99.90;;;;;;5040018;28;20050;-81
2023/08/06 04:44:05;;;;;;;13.60;9.95;;;14.20;99.90;;;;;;5051579;28;20043;-81
2023/08/06 04:46:31;;;;;;;14.10;10.77;;;14.20;99.90;;;;;;5051696;28;20121;-81
2023/08/06 04:48:57;;;;;;;16.98;10.85;;;14.20;99.90;;;;;;5025313;28;20053;-81
2023/08/06 04:51:22;;;;;;;13.52;11.15;;;14.20;99.90;;;;;;5032816;28;20179;-81
2023/08/06 04:53:48;;;;;;;23.88;11.50;;;14.20;99.90;;;;;;5045133;28;20048;-81
2023/08/06 04:56:13;;;;;;;12.20;10.95;;;14.20;99.90;;;;;;5050921;28;20040;-80
2023/08/06 04:58:39;;;;;;;12.63;9.90;;;14.20;99.90;;;;;;5046830;28;20039;-81
2023/08/06 05:01:05;;;;;;;11.00;9.57;;;14.20;99.90;;;;;;5033728;28;20042;-81
2023/08/06 05:03:30;;;;;;;12.98;9.88;;;15.20;99.90;;;;;;5033137;28;20042;-81
2023/08/06 05:05:56;;;;;;;16.52;10.23;;;14.20;99.90;;;;;;5049526;28;20040;-81
2023/08/06 05:08:21;;;;;;;14.95;11.40;;;14.20;99.90;;;;;;5051239;28;20040;-80
2023/08/06 05:10:47;;;;;;;12.48;11.15;;;14.20;99.90;;;;;;5008047;28;20038;-80
2023/08/06 05:13:13;;;;;;;14.18;10.30;;;14.30;99.90;;;;;;5051249;28;20059;-81
2023/08/06 05:15:42;;;;;;;13.10;11.70;;;14.30;99.90;;;;;;5008694;28;20494;-80
2023/08/06 05:18:08;;;;;;;11.90;10.55;;;14.30;99.90;;;;;;5050069;28;20545;-81
2023/08/06 05:20:37;;;;;;;11.57;9.73;;;14.40;99.90;;;;;;5050814;28;20044;-81
2023/08/06 05:23:03;;;;;;;12.93;10.75;;;14.30;99.90;;;;;;5025651;28;20050;-81
2023/08/06 05:25:29;;;;;;;11.68;10.48;;;14.30;99.90;;;;;;5032846;28;20046;-80
2023/08/06 05:27:55;;;;;;;12.40;10.25;;;14.30;99.90;;;;;;5046117;28;20035;-81
2023/08/06 05:30:21;;;;;;;13.50;11.13;;;14.30;99.90;;;;;;5050280;28;20055;-81
2023/08/06 05:32:46;;;;;;;14.73;10.55;;;14.30;99.90;;;;;;5044266;28;20043;-81
2023/08/06 05:35:12;;;;;;;11.50;10.40;;;14.90;99.90;;;;;;5033433;28;20046;-81
2023/08/06 05:37:38;;;;;;;10.95;9.85;;;14.30;99.90;;;;;;5032491;28;20043;-80
2023/08/06 05:40:04;;;;;;;18.17;12.48;;;14.30;99.90;;;;;;5025123;28;20046;-81
2023/08/06 05:42:30;;;;;;;10.63;9.63;;;14.30;99.90;;;;;;5031781;28;20051;-80
2023/08/06 05:44:55;;;;;;;11.38;9.88;;;14.30;99.90;;;;;;5044364;28;20103;-81
2023/08/06 05:47:21;;;;;;;10.43;9.35;;;14.30;99.90;;;;;;5033096;28;20434;-81
2023/08/06 05:49:46;;;;;;;10.23;9.23;;;14.20;99.90;;;;;;5045547;28;20044;-80
2023/08/06 05:52:12;;;;;;;10.48;9.02;;;14.20;99.90;;;;;;5032619;28;20065;-81
2023/08/06 05:54:38;;;;;;;13.65;10.48;;;14.30;99.90;;;;;;5033128;28;20047;-80
2023/08/06 05:57:04;;;;;;;12.95;9.57;;;14.30;99.90;;;;;;5049852;28;20089;-80
2023/08/06 05:59:30;;;;;;;11.60;10.52;;;14.30;99.90;;;;;;5049536;28;20048;-81
2023/08/06 06:01:55;;;;;;;10.43;9.48;;;14.30;99.90;;;;;;5039046;28;20044;-80
2023/08/06 06:04:21;;;;;;;10.98;9.93;;;14.80;99.90;;;;;;5039623;28;20037;-81
2023/08/06 06:06:47;;;;;;;10.98;8.80;;;14.30;99.90;;;;;;5045431;28;20050;-81
2023/08/06 06:09:12;;;;;;;10.73;9.57;;;15.10;99.90;;;;;;5052751;28;20092;-81
2023/08/06 06:11:38;;;;;;;10.88;9.77;;;14.30;99.90;;;;;;5050280;28;20032;-82
2023/08/06 06:14:03;;;;;;;16.60;9.45;;;14.50;99.90;;;;;;5034587;28;20088;-81
2023/08/06 06:16:29;;;;;;;12.00;8.13;;;14.60;99.90;;;;;;5032748;28;20074;-81
2023/08/06 06:18:55;;;;;;;13.55;9.52;;;14.40;99.90;;;;;;5040318;28;20057;-81
2023/08/06 06:21:21;;;;;;;12.13;8.50;;;14.40;99.90;;;;;;5049414;28;20051;-81
2023/08/06 06:23:46;;;;;;;11.25;9.15;;;14.70;99.90;;;;;;5046096;28;20369;-81
2023/08/06 06:26:13;;;;;;;15.38;10.05;;;14.50;99.90;;;;;;5032707;28;20082;-81
2023/08/06 06:28:38;;;;;;;15.13;8.00;;;14.50;99.90;;;;;;5031893;28;20069;-81
2023/08/06 06:31:04;;;;;;;9.65;8.68;;;14.50;99.90;;;;;;5046417;28;20731;-81
2023/08/06 06:33:30;;;;;;;9.57;8.70;;;14.50;99.90;;;;;;5049792;28;20465;-81
2023/08/06 06:35:55;;;;;;;10.68;8.85;;;14.60;99.90;;;;;;5041643;28;20048;-82
2023/08/06 06:38:21;;;;;;;14.52;9.00;;;14.60;99.90;;;;;;5031952;28;20031;-81
2023/08/06 06:40:56;;;;;;;9.88;8.48;;;14.60;99.90;;;;;;5032629;28;20043;-81
2023/08/06 06:43:23;;;;;;;8.85;7.80;;;14.60;99.90;;;;;;5049958;28;20068;-81
2023/08/06 06:46:01;;;;;;;11.65;9.05;;;14.60;99.90;;;;;;5046774;28;20039;-80
2023/08/06 06:48:29;;;;;;;10.43;9.20;;;14.70;99.90;;;;;;5031181;28;20053;-80
2023/08/06 06:50:55;;;;;;;9.43;8.55;;;14.70;99.90;;;;;;5037673;28;20114;-81
2023/08/06 06:53:26;;;;;;;10.50;8.45;;;15.10;99.90;;;;;;5048364;28;20043;-80
2023/08/06 06:55:55;;;;;;;11.57;9.30;;;14.70;99.90;;;;;;5045552;28;20036;-81
2023/08/06 06:58:21;;;;;;;10.07;9.13;;;14.70;99.90;;;;;;5031709;28;20049;-81
2023/08/06 07:00:48;;;;;;;9.98;8.27;;;14.80;99.90;;;;;;5030663;28;20038;-81
2023/08/06 07:03:18;;;;;;;10.00;8.95;;;14.80;99.90;;;;;;5023303;28;20038;-81
2023/08/06 07:05:44;;;;;;;11.90;9.48;;;14.80;99.90;;;;;;5031628;28;20393;-81
2023/08/06 07:08:09;;;;;;;13.05;9.05;;;14.90;99.90;;;;;;5046162;28;20123;-81
2023/08/06 07:10:35;;;;;;;10.60;8.02;;;15.00;99.90;;;;;;5048717;28;20139;-81
2023/08/06 07:13:02;;;;;;;10.48;9.27;;;14.90;99.90;;;;;;5040067;28;20035;-81
2023/08/06 07:15:27;;;;;;;10.70;9.18;;;15.40;99.90;;;;;;5031916;28;20043;-81
2023/08/06 07:17:53;;;;;;;9.90;8.70;;;14.90;99.90;;;;;;5033064;28;20121;-81
2023/08/06 07:20:18;;;;;;;9.18;8.27;;;14.90;99.90;;;;;;5048812;28;20063;-82
2023/08/06 07:22:44;;;;;;;8.95;8.13;;;15.00;99.90;;;;;;5049049;28;20047;-81
2023/08/06 07:25:10;;;;;;;8.02;7.25;;;15.00;99.90;;;;;;5035033;28;20051;-81
2023/08/06 07:27:36;;;;;;;8.48;7.68;;;15.10;99.90;;;;;;5031395;28;20034;-81
2023/08/06 07:30:02;;;;;;;10.88;8.38;;;15.10;99.90;;;;;;5038097;28;20050;-81
2023/08/06 07:32:27;;;;;;;8.27;7.50;;;15.10;99.90;;;;;;5066312;28;20387;-81
2023/08/06 07:34:56;;;;;;;8.48;7.57;;;15.10;99.90;;;;;;5032067;28;20035;-81
2023/08/06 07:37:23;;;;;;;9.57;8.68;;;16.00;99.90;;;;;;5047116;28;20040;-82
2023/08/06 07:39:48;;;;;;;8.32;7.47;;;15.20;99.90;;;;;;5048938;28;20075;-82
2023/08/06 07:42:14;;;;;;;9.05;7.35;;;15.30;99.90;;;;;;5049388;28;20497;-82
2023/08/06 07:44:40;;;;;;;9.65;7.78;;;15.30;99.90;;;;;;5048272;28;20032;-82
2023/08/06 07:47:05;;;;;;;12.48;7.75;;;15.30;99.90;;;;;;5049622;28;20369;-82
2023/08/06 07:49:31;;;;;;;8.80;7.90;;;15.40;99.90;;;;;;5023062;28;20042;-79
2023/08/06 07:51:56;;;;;;;9.25;7.55;;;15.40;99.90;;;;;;5042154;28;20042;-82
2023/08/06 07:54:24;;;;;;;8.93;8.02;;;16.00;99.90;;;;;;5058383;28;20039;-80
2023/08/06 07:56:50;;;;;;;7.97;7.22;;;15.50;99.90;;;;;;5049810;28;20039;-82
2023/08/06 07:59:15;;;;;;;8.40;7.45;;;15.60;99.90;;;;;;5033714;28;20092;-82
2023/08/06 08:01:41;;;;;;;9.55;8.38;;;15.60;99.90;;;;;;5031301;28;20091;-82
2023/08/06 08:04:06;;;;;;;7.28;6.30;;;15.60;99.90;;;;;;5042492;28;20394;-79
2023/08/06 08:06:33;;;;;;;8.52;7.25;;;15.70;99.90;;;;;;5052026;28;20123;-82
2023/08/06 08:08:59;;;;;;;8.15;5.90;;;15.80;99.90;;;;;;5050313;28;20368;-81
2023/08/06 08:11:26;;;;;;;8.98;6.00;;;15.80;99.90;;;;;;5011896;28;20097;-82
2023/08/06 08:13:51;;;;;;;5.82;5.32;;;15.80;99.90;;;;;;5051660;28;20036;-82
2023/08/06 08:16:17;;;;;;;7.82;7.13;;;15.80;99.90;;;;;;5038131;28;20054;-79
2023/08/06 08:18:42;;;;;;;6.35;5.78;;;15.90;99.90;;;;;;5034231;28;20045;-82
2023/08/06 08:21:08;;;;;;;5.22;4.75;;;16.80;99.90;;;;;;5040939;28;20054;-82
2023/08/06 08:23:34;;;;;;;6.47;5.85;;;16.00;99.90;;;;;;5052414;28;20037;-82
2023/08/06 08:26:01;;;;;;;5.90;5.40;;;16.00;99.90;;;;;;5051512;28;20043;-82
2023/08/06 08:28:27;;;;;;;9.38;5.65;;;16.00;99.90;;;;;;5033902;28;20164;-82
2023/08/06 08:30:53;;;;;;;5.90;5.40;;;16.10;99.90;;;;;;5034457;28;20126;-82
2023/08/06 08:33:18;;;;;;;6.20;5.55;;;16.10;99.90;;;;;;5047252;28;20071;-82
2023/08/06 08:35:45;;;;;;;6.13;5.53;;;16.20;99.90;;;;;;5051888;28;20047;-82
2023/08/06 08:38:11;;;;;;;6.30;5.90;;;16.20;99.90;;;;;;5043476;28;20044;-80
2023/08/06 08:40:46;;;;;;;6.28;5.68;;;16.20;99.90;;;;;;5033880;28;20552;-82
2023/08/06 08:43:12;;;;;;;6.63;5.47;;;16.90;99.90;;;;;;5041481;28;20047;-79
2023/08/06 08:45:40;;;;;;;4.72;4.20;;;16.30;99.90;;;;;;5051527;28;20507;-82
2023/08/06 08:48:06;;;;;;;5.68;3.88;;;16.40;99.90;;;;;;5046733;28;20044;-80
2023/08/06 08:50:32;;;;;;;4.55;3.70;;;16.50;99.90;;;;;;5032888;28;20375;-83
2023/08/06 08:52:58;;;;;;;4.20;3.80;;;16.50;99.90;;;;;;5033975;28;20482;-82
2023/08/06 08:55:24;;;;;;;5.65;3.55;;;16.60;99.90;;;;;;5048130;28;20043;-82
2023/08/06 08:57:50;;;;;;;3.60;3.30;;;16.70;99.90;;;;;;5051502;28;20036;-81
2023/08/06 09:00:15;;;;;;;4.05;2.88;;;16.70;99.90;;;;;;5051241;28;20109;-82
2023/08/06 09:02:42;;;;;;;3.80;3.03;;;16.70;99.90;;;;;;5049341;28;20040;-82
2023/08/06 09:05:09;;;;;;;3.35;2.38;;;16.80;99.90;;;;;;5048922;28;20476;-79
2023/08/06 09:07:48;;;;;;;3.05;2.40;;;17.10;99.90;;;;;;5033626;28;20043;-82
2023/08/06 09:10:17;;;;;;;2.33;2.13;;;16.80;99.90;;;;;;5039238;28;20039;-83
2023/08/06 09:12:44;;;;;;;2.60;2.33;;;16.90;99.90;;;;;;5050963;28;20028;-82
2023/08/06 09:15:10;;;;;;;4.75;2.33;;;16.90;99.90;;;;;;5048930;28;20082;-82
2023/08/06 09:17:36;;;;;;;2.63;2.03;;;17.00;99.90;;;;;;5031994;28;20070;-80
2023/08/06 09:20:15;;;;;;;2.35;2.20;;;17.00;99.90;;;;;;5033158;28;20119;-83
2023/08/06 09:22:41;;;;;;;1.95;1.85;;;17.10;99.90;;;;;;5026226;28;20452;-82
2023/08/06 09:25:10;;;;;;;3.42;2.00;;;17.10;99.90;;;;;;5033828;28;20042;-82
2023/08/06 09:27:37;;;;;;;1.88;1.75;;;17.20;99.90;;;;;;5025623;28;20081;-82
2023/08/06 09:30:04;;;;;;;4.18;1.80;;;17.20;99.90;;;;;;5031566;28;20490;-82
2023/08/06 09:32:51;;;;;;;1.83;1.73;;;17.20;99.90;;;;;;5047766;28;20099;-81
2023/08/06 09:35:19;;;;;;;5.30;1.63;;;17.30;99.90;;;;;;5046743;28;20079;-82
2023/08/06 09:37:45;;;;;;;2.10;1.77;;;17.30;99.90;;;;;;5040982;28;20035;-82
2023/08/06 09:40:30;;;;;;;3.58;2.08;;;17.30;99.90;;;;;;5042497;28;20554;-82
2023/08/06 09:42:57;;;;;;;1.83;1.73;;;17.30;99.90;;;;;;5051825;28;20060;-82
2023/08/06 09:45:23;;;;;;;1.50;1.40;;;17.30;99.90;;;;;;5042367;28;20075;-82
2023/08/06 09:47:50;;;;;;;3.17;1.30;;;17.30;99.90;;;;;;5033144;28;20091;-82
2023/08/06 09:50:20;;;;;;;1.83;1.40;;;17.40;99.90;;;;;;5035646;28;20039;-83
2023/08/06 09:52:48;;;;;;;1.35;1.25;;;17.50;99.90;;;;;;5048449;28;20403;-80
2023/08/06 09:55:14;;;;;;;1.80;1.70;;;17.50;99.90;;;;;;5050327;28;20138;-80
2023/08/06 09:57:41;;;;;;;2.42;1.25;;;17.60;99.90;;;;;;5032144;28;20046;-82
2023/08/06 10:00:10;;;;;;;1.88;1.42;;;17.60;99.90;;;;;;5032679;28;20046;-83
2023/08/06 10:02:40;;;;;;;1.90;1.80;;;17.70;99.90;;;;;;5048511;28;20059;-81
2023/08/06 10:05:09;;;;;;;3.08;1.50;;;17.70;99.90;;;;;;5050189;28;20048;-80
2023/08/06 10:07:35;;;;;;;2.30;1.75;;;17.70;99.90;;;;;;5036935;28;20047;-80
2023/08/06 10:10:02;;;;;;;2.38;1.83;;;17.80;99.90;;;;;;5033382;28;20402;-82
2023/08/06 10:12:31;;;;;;;4.03;2.25;;;17.80;99.90;;;;;;5074873;28;20175;-82
2023/08/06 10:14:59;;;;;;;2.05;1.95;;;17.80;99.90;;;;;;5031416;28;20042;-82
2023/08/06 10:17:26;;;;;;;1.52;1.42;;;17.80;99.90;;;;;;5038323;28;20080;-83
2023/08/06 10:19:55;;;;;;;1.75;1.65;;;18.20;99.90;;;;;;5047675;28;20056;-83
2023/08/06 10:22:21;;;;;;;1.85;1.75;;;17.90;99.90;;;;;;5007440;28;20051;-83
2023/08/06 10:24:56;;;;;;;1.95;1.77;;;18.00;99.90;;;;;;5049382;28;20126;-82
2023/08/06 10:27:38;;;;;;;2.20;2.00;;;18.00;99.90;;;;;;5050486;28;20044;-80
2023/08/06 10:30:30;;;;;;;1.60;1.50;;;17.90;99.90;;;;;;5052690;28;20044;-82
2023/08/06 10:33:03;;;;;;;3.65;2.13;;;17.90;99.90;;;;;;5026638;28;20037;-82
2023/08/06 10:35:36;;;;;;;3.42;1.83;;;18.00;99.90;;;;;;5038387;28;20565;-81
2023/08/06 10:38:10;;;;;;;1.77;1.48;;;18.00;99.90;;;;;;5050065;28;20043;-80
2023/08/06 10:41:01;;;;;;;2.38;1.70;;;18.10;99.90;;;;;;5038731;28;20052;-80
2023/08/06 10:43:32;;;;;;;1.60;1.50;;;18.00;99.90;;;;;;5043526;28;20050;-82
2023/08/06 10:46:00;;;;;;;1.58;1.48;;;18.00;99.90;;;;;;5049692;28;20067;-83
2023/08/06 10:48:40;;;;;;;2.58;1.20;;;18.00;99.90;;;;;;5046175;28;20040;-83
2023/08/06 10:51:10;;;;;;;2.20;1.52;;;18.00;99.90;;;;;;5032293;28;20038;-80
2023/08/06 10:53:37;;;;;;;2.20;1.35;;;18.10;99.90;;;;;;5040046;28;20053;-82
2023/08/06 10:56:13;;;;;;;1.95;1.40;;;18.10;99.90;;;;;;5048982;28;20040;-83
2023/08/06 10:58:39;;;;;;;1.98;1.40;;;18.10;99.90;;;;;;5038118;28;20598;-83
2023/08/06 11:01:06;;;;;;;2.45;1.38;;;18.20;99.90;;;;;;5031234;28;20121;-82
2023/08/06 11:03:32;;;;;;;1.45;1.33;;;18.20;99.90;;;;;;5036264;28;20371;-83
2023/08/06 11:05:58;;;;;;;2.65;1.67;;;18.20;99.90;;;;;;5049673;28;20051;-83
2023/08/06 11:08:28;;;;;;;2.65;1.63;;;18.20;99.90;;;;;;5048246;28;20032;-83
2023/08/06 11:10:54;;;;;;;2.28;1.48;;;18.40;99.90;;;;;;5024454;28;20053;-83
2023/08/06 11:13:23;;;;;;;2.25;1.48;;;18.40;99.90;;;;;;5032270;28;20069;-83
2023/08/06 11:15:48;;;;;;;2.55;1.60;;;18.40;99.90;;;;;;5046792;28;20040;-83
2023/08/06 11:18:14;;;;;;;1.83;1.63;;;18.40;99.90;;;;;;5049285;28;20070;-83
2023/08/06 11:20:40;;;;;;;1.90;1.48;;;18.40;99.90;;;;;;5041130;28;20056;-83
2023/08/06 11:23:06;;;;;;;4.47;1.73;;;18.40;99.90;;;;;;5040579;28;20042;-80
2023/08/06 11:25:36;;;;;;;1.65;1.55;;;18.40;99.90;;;;;;5043231;28;20088;-83
2023/08/06 11:28:02;;;;;;;2.65;1.50;;;18.50;99.90;;;;;;5049245;28;20036;-83
2023/08/06 11:30:28;;;;;;;2.00;1.80;;;18.50;99.90;;;;;;5048258;28;20052;-83
2023/08/06 11:32:53;;;;;;;2.08;1.60;;;18.90;99.90;;;;;;5031961;28;20038;-83
2023/08/06 11:35:19;;;;;;;2.80;1.40;;;18.70;99.90;;;;;;5031714;28;20112;-83
2023/08/06 11:37:46;;;;;;;1.70;1.10;;;18.80;99.90;;;;;;5044302;28;20053;-81
2023/08/06 11:40:14;;;;;;;1.55;1.45;;;18.80;99.90;;;;;;5052756;28;20051;-84
2023/08/06 11:42:40;;;;;;;1.85;1.42;;;18.80;99.90;;;;;;5046464;28;20055;-82
2023/08/06 11:45:06;;;;;;;3.53;1.50;;;19.00;99.90;;;;;;5058771;28;20436;-83
2023/08/06 11:47:31;;;;;;;1.35;1.25;;;19.10;99.90;;;;;;5052675;28;20040;-83
2023/08/06 11:49:57;;;;;;;1.55;1.45;;;19.20;99.90;;;;;;5025785;28;20034;-84
2023/08/06 11:52:25;;;;;;;1.48;1.27;;;19.30;99.90;;;;;;5034572;28;20402;-80
2023/08/06 11:55:11;;;;;;;2.35;1.50;;;19.40;99.90;;;;;;5046523;28;20043;-83
2023/08/06 11:57:44;;;;;;;2.45;1.30;;;19.40;99.90;;;;;;5048896;28;20040;-83
2023/08/06 12:00:13;;;;;;;1.73;1.45;;;19.40;99.90;;;;;;5034859;28;20510;-83
2023/08/06 12:02:41;;;;;;;2.53;1.38;;;19.40;99.90;;;;;;5038307;28;20135;-84
2023/08/06 12:05:15;;;;;;;1.20;1.10;;;19.40;99.90;;;;;;5052260;28;20043;-83
2023/08/06 12:07:46;;;;;;;3.17;1.75;;;19.50;99.90;;;;;;5048154;28;20052;-84
2023/08/06 12:10:13;;;;;;;3.00;1.25;;;19.50;99.90;;;;;;5035175;28;20049;-84
2023/08/06 12:12:39;;;;;;;1.77;1.60;;;19.50;99.90;;;;;;5034666;28;20055;-83
2023/08/06 12:15:06;;;;;;;2.88;1.10;;;19.40;99.90;;;;;;5052309;28;20123;-84
2023/08/06 12:17:32;;;;;;;2.30;1.38;;;19.40;99.90;;;;;;5052013;28;20530;-84
2023/08/06 12:19:58;;;;;;;1.55;1.10;;;19.40;99.90;;;;;;5036941;28;20114;-83
2023/08/06 12:22:23;;;;;;;2.90;1.30;;;19.40;99.90;;;;;;5034655;28;20042;-84
2023/08/06 12:24:49;;;;;;;3.15;1.15;;;19.50;99.90;;;;;;5042238;28;20055;-84
2023/08/06 12:27:16;;;;;;;1.52;1.30;;;19.50;99.90;;;;;;5051289;28;20036;-84
2023/08/06 12:29:47;;;;;;;1.30;1.15;;;19.60;99.90;;;;;;5050229;28;20040;-84
2023/08/06 12:32:13;;;;;;;2.33;1.70;;;19.70;99.90;;;;;;5034705;28;20117;-84
2023/08/06 12:34:40;;;;;;;3.15;1.52;;;19.70;99.90;;;;;;5032800;28;20322;-83
2023/08/06 12:37:09;;;;;;;2.55;1.20;;;19.60;99.90;;;;;;5026676;28;20046;-84